sensor_id;sensor_type;location;lat;lon;timestamp;pressure;altitude;pressure_sealevel;temperature;humidity
21658;BME280;10990;48.174;9.782;2023-08-01T00:01:44;93884.19;;;18.89;100.00
21658;BME280;10990;48.174;9.782;2023-08-01T00:04:11;93872.69;;;18.89;100.00
21658;BME280;10990;48.174;9.782;2023-08-01T00:06:38;93883.09;;;18.85;100.00
21658;BME280;10990;48.174;9.782;2023-08-01T00:09:04;93872.19;;;18.92;100.00
21658;BME280;10990;48.174;9.782;2023-08-01T00:11:31;93865.06;;;18.80;100.00
21658;BME280;10990;48.174;9.782;2023-08-01T00:13:59;93849.16;;;18.91;100.00
21658;BME280;10990;48.174;9.782;2023-08-01T00:16:27;93853.84;;;18.84;100.00
21658;BME280;10990;48.174;9.782;2023-08-01T00:18:53;93836.25;;;18.71;100.00
21658;BME280;10990;48.174;9.782;2023-08-01T00:21:20;93822.38;;;18.74;100.00
21658;BME280;10990;48.174;9.782;2023-08-01T00:23:47;93836.75;;;18.85;100.00
21658;BME280;10990;48.174;9.782;2023-08-01T00:26:13;93824.38;;;18.67;100.00
21658;BME280;10990;48.174;9.782;2023-08-01T00:28:40;93813.53;;;18.56;100.00
21658;BME280;10990;48.174;9.782;2023-08-01T00:31:08;93799.25;;;18.68;100.00
21658;BME280;10990;48.174;9.782;2023-08-01T00:33:35;93787.34;;;18.58;100.00
21658;BME280;10990;48.174;9.782;2023-08-01T00:36:02;93804.75;;;18.61;100.00
21658;BME280;10990;48.174;9.782;2023-08-01T00:38:36;93809.94;;;18.68;100.00
21658;BME280;10990;48.174;9.782;2023-08-01T00:41:03;93817.81;;;18.57;100.00
21658;BME280;10990;48.174;9.782;2023-08-01T00:43:30;93814.00;;;18.70;100.00
21658;BME280;10990;48.174;9.782;2023-08-01T00:45:59;93827.41;;;18.70;100.00
21658;BME280;10990;48.174;9.782;2023-08-01T00:48:28;93865.56;;;18.77;100.00
21658;BME280;10990;48.174;9.782;2023-08-01T00:50:56;93892.81;;;18.74;100.00
21658;BME280;10990;48.174;9.782;2023-08-01T00:53:24;93902.94;;;18.72;100.00
21658;BME280;10990;48.174;9.782;2023-08-01T00:55:51;93924.34;;;18.72;100.00
21658;BME280;10990;48.174;9.782;2023-08-01T00:58:18;93921.88;;;18.83;100.00
21658;BME280;10990;48.174;9.782;2023-08-01T01:00:45;93932.63;;;18.71;100.00
21658;BME280;10990;48.174;9.782;2023-08-01T01:03:12;93930.88;;;18.76;100.00
21658;BME280;10990;48.174;9.782;2023-08-01T01:05:43;93922.59;;;18.78;100.00
21658;BME280;10990;48.174;9.782;2023-08-01T01:08:14;93926.66;;;18.80;100.00
21658;BME280;10990;48.174;9.782;2023-08-01T01:10:41;93912.06;;;18.88;100.00
21658;BME280;10990;48.174;9.782;2023-08-01T01:13:08;93916.78;;;18.81;100.00
21658;BME280;10990;48.174;9.782;2023-08-01T01:15:35;93886.66;;;18.74;100.00
21658;BME280;10990;48.174;9.782;2023-08-01T01:18:01;93891.09;;;18.68;100.00
21658;BME280;10990;48.174;9.782;2023-08-01T01:20:33;93889.47;;;18.67;100.00
21658;BME280;10990;48.174;9.782;2023-08-01T01:23:01;93888.28;;;18.75;100.00
21658;BME280;10990;48.174;9.782;2023-08-01T01:25:31;93891.19;;;18.73;100.00
21658;BME280;10990;48.174;9.782;2023-08-01T01:27:59;93879.81;;;18.66;100.00
21658;BME280;10990;48.174;9.782;2023-08-01T01:30:28;93869.75;;;18.73;100.00
21658;BME280;10990;48.174;9.782;2023-08-01T01:32:55;93870.41;;;18.80;100.00
21658;BME280;10990;48.174;9.782;2023-08-01T01:35:23;93888.66;;;18.84;100.00
21658;BME280;10990;48.174;9.782;2023-08-01T01:37:52;93871.31;;;18.86;100.00
21658;BME280;10990;48.174;9.782;2023-08-01T01:40:18;93845.00;;;18.83;100.00
21658;BME280;10990;48.174;9.782;2023-08-01T01:42:45;93782.13;;;18.52;100.00
21658;BME280;10990;48.174;9.782;2023-08-01T01:45:13;93713.28;;;18.47;100.00
21658;BME280;10990;48.174;9.782;2023-08-01T01:47:40;93635.28;;;18.60;100.00
21658;BME280;10990;48.174;9.782;2023-08-01T01:50:07;93614.47;;;18.46;100.00
21658;BME280;10990;48.174;9.782;2023-08-01T01:52:34;93585.72;;;18.36;100.00
21658;BME280;10990;48.174;9.782;2023-08-01T01:55:03;93536.94;;;18.29;100.00
21658;BME280;10990;48.174;9.782;2023-08-01T01:57:30;93517.81;;;18.20;100.00
21658;BME280;10990;48.174;9.782;2023-08-01T01:59:57;93464.31;;;17.98;100.00
21658;BME280;10990;48.174;9.782;2023-08-01T02:02:24;93416.53;;;18.07;100.00
21658;BME280;10990;48.174;9.782;2023-08-01T02:04:51;93405.03;;;18.06;100.00
21658;BME280;10990;48.174;9.782;2023-08-01T02:07:19;93369.75;;;18.09;100.00
21658;BME280;10990;48.174;9.782;2023-08-01T02:09:45;93323.69;;;18.02;100.00
21658;BME280;10990;48.174;9.782;2023-08-01T02:12:14;93276.41;;;17.81;100.00
21658;BME280;10990;48.174;9.782;2023-08-01T02:14:41;93243.41;;;17.70;100.00
21658;BME280;10990;48.174;9.782;2023-08-01T02:17:08;93209.63;;;17.59;100.00
21658;BME280;10990;48.174;9.782;2023-08-01T02:19:35;93180.03;;;17.65;100.00
21658;BME280;10990;48.174;9.782;2023-08-01T02:22:02;93137.84;;;17.73;100.00
21658;BME280;10990;48.174;9.782;2023-08-01T02:24:29;93127.50;;;17.49;100.00
21658;BME280;10990;48.174;9.782;2023-08-01T02:26:55;93021.31;;;17.39;100.00
21658;BME280;10990;48.174;9.782;2023-08-01T02:29:24;92985.25;;;17.37;100.00
21658;BME280;10990;48.174;9.782;2023-08-01T02:31:50;92948.06;;;17.30;100.00
21658;BME280;10990;48.174;9.782;2023-08-01T02:34:17;92897.59;;;17.34;100.00
21658;BME280;10990;48.174;9.782;2023-08-01T02:36:44;92864.41;;;17.19;100.00
21658;BME280;10990;48.174;9.782;2023-08-01T02:39:11;92844.19;;;17.34;100.00
21658;BME280;10990;48.174;9.782;2023-08-01T02:41:38;92827.91;;;17.35;100.00
21658;BME280;10990;48.174;9.782;2023-08-01T02:44:04;92773.66;;;17.30;100.00
21658;BME280;10990;48.174;9.782;2023-08-01T02:46:32;92723.41;;;17.21;100.00
21658;BME280;10990;48.174;9.782;2023-08-01T02:48:59;92589.06;;;17.31;100.00
21658;BME280;10990;48.174;9.782;2023-08-01T02:51:27;92634.75;;;17.30;100.00
21658;BME280;10990;48.174;9.782;2023-08-01T02:53:54;92604.06;;;17.32;100.00
21658;BME280;10990;48.174;9.782;2023-08-01T02:56:20;92602.97;;;17.28;100.00
21658;BME280;10990;48.174;9.782;2023-08-01T02:58:47;92578.69;;;17.35;100.00
21658;BME280;10990;48.174;9.782;2023-08-01T03:01:14;92582.94;;;17.25;100.00
21658;BME280;10990;48.174;9.782;2023-08-01T03:03:43;92584.81;;;17.30;100.00
21658;BME280;10990;48.174;9.782;2023-08-01T03:06:09;92560.50;;;17.27;100.00
21658;BME280;10990;48.174;9.782;2023-08-01T03:08:36;92548.22;;;17.25;100.00
21658;BME280;10990;48.174;9.782;2023-08-01T03:11:03;92526.31;;;17.29;100.00
21658;BME280;10990;48.174;9.782;2023-08-01T03:13:31;92507.63;;;17.23;100.00
21658;BME280;10990;48.174;9.782;2023-08-01T03:15:57;92503.38;;;17.07;100.00
21658;BME280;10990;48.174;9.782;2023-08-01T03:18:24;92484.13;;;17.10;100.00
21658;BME280;10990;48.174;9.782;2023-08-01T03:20:52;92470.50;;;17.17;100.00
21658;BME280;10990;48.174;9.782;2023-08-01T03:23:19;92441.66;;;17.24;100.00
21658;BME280;10990;48.174;9.782;2023-08-01T03:25:46;92440.34;;;17.21;100.00
21658;BME280;10990;48.174;9.782;2023-08-01T03:28:13;92436.59;;;17.17;100.00
21658;BME280;10990;48.174;9.782;2023-08-01T03:30:40;92428.56;;;17.22;100.00
21658;BME280;10990;48.174;9.782;2023-08-01T03:33:06;92427.53;;;17.18;100.00
21658;BME280;10990;48.174;9.782;2023-08-01T03:35:34;92427.53;;;17.18;100.00
21658;BME280;10990;48.174;9.782;2023-08-01T03:38:02;92424.31;;;17.21;100.00
21658;BME280;10990;48.174;9.782;2023-08-01T03:40:29;92420.84;;;17.21;100.00
21658;BME280;10990;48.174;9.782;2023-08-01T03:42:55;92415.22;;;17.17;100.00
21658;BME280;10990;48.174;9.782;2023-08-01T03:45:22;92406.16;;;17.13;100.00
21658;BME280;10990;48.174;9.782;2023-08-01T03:47:49;92402.16;;;17.21;100.00
21658;BME280;10990;48.174;9.782;2023-08-01T03:50:16;92408.53;;;17.20;100.00
21658;BME280;10990;48.174;9.782;2023-08-01T03:52:43;92405.34;;;17.23;100.00
21658;BME280;10990;48.174;9.782;2023-08-01T03:55:12;92418.19;;;17.21;100.00
21658;BME280;10990;48.174;9.782;2023-08-01T03:57:38;92413.34;;;17.28;100.00
21658;BME280;10990;48.174;9.782;2023-08-01T04:00:06;92431.53;;;17.11;100.00
21658;BME280;10990;48.174;9.782;2023-08-01T04:02:39;92416.84;;;17.13;100.00
21658;BME280;10990;48.174;9.782;2023-08-01T04:05:06;92430.75;;;17.10;100.00
21658;BME280;10990;48.174;9.782;2023-08-01T04:07:34;92417.88;;;17.28;100.00
21658;BME280;10990;48.174;9.782;2023-08-01T04:10:01;92437.13;;;17.14;100.00
21658;BME280;10990;48.174;9.782;2023-08-01T04:12:31;92427.53;;;17.13;100.00
21658;BME280;10990;48.174;9.782;2023-08-01T04:14:58;92425.41;;;17.15;100.00
21658;BME280;10990;48.174;9.782;2023-08-01T04:17:25;92416.31;;;17.21;100.00
21658;BME280;10990;48.174;9.782;2023-08-01T04:19:52;92417.94;;;17.12;100.00
21658;BME280;10990;48.174;9.782;2023-08-01T04:22:19;92408.81;;;17.23;100.00
21658;BME280;10990;48.174;9.782;2023-08-01T04:24:45;92431.00;;;17.14;100.00
21658;BME280;10990;48.174;9.782;2023-08-01T04:27:12;92445.16;;;17.09;100.00
21658;BME280;10990;48.174;9.782;2023-08-01T04:29:40;92429.66;;;17.16;100.00
21658;BME280;10990;48.174;9.782;2023-08-01T04:32:07;92408.03;;;17.13;100.00
21658;BME280;10990;48.174;9.782;2023-08-01T04:34:36;92399.75;;;17.19;100.00
21658;BME280;10990;48.174;9.782;2023-08-01T04:37:03;92391.47;;;17.21;100.00
21658;BME280;10990;48.174;9.782;2023-08-01T04:39:30;92406.94;;;17.24;100.00
21658;BME280;10990;48.174;9.782;2023-08-01T04:41:56;92404.53;;;17.33;100.00
21658;BME280;10990;48.174;9.782;2023-08-01T04:44:23;92417.94;;;17.07;100.00
21658;BME280;10990;48.174;9.782;2023-08-01T04:46:51;92407.50;;;17.11;100.00
21658;BME280;10990;48.174;9.782;2023-08-01T04:49:18;92396.53;;;17.22;100.00
21658;BME280;10990;48.174;9.782;2023-08-01T04:51:45;92402.16;;;17.06;100.00
21658;BME280;10990;48.174;9.782;2023-08-01T04:54:12;92421.38;;;17.02;100.00
21658;BME280;10990;48.174;9.782;2023-08-01T04:56:38;92406.69;;;17.20;100.00
21658;BME280;10990;48.174;9.782;2023-08-01T04:59:05;92415.50;;;17.16;100.00
21658;BME280;10990;48.174;9.782;2023-08-01T05:01:32;92420.56;;;17.28;100.00
21658;BME280;10990;48.174;9.782;2023-08-01T05:04:00;92436.03;;;17.25;100.00
21658;BME280;10990;48.174;9.782;2023-08-01T05:06:27;92415.47;;;17.31;100.00
21658;BME280;10990;48.174;9.782;2023-08-01T05:08:54;92430.19;;;17.13;100.00
21658;BME280;10990;48.174;9.782;2023-08-01T05:11:21;92434.72;;;17.23;100.00
21658;BME280;10990;48.174;9.782;2023-08-01T05:13:48;92434.47;;;17.14;100.00
21658;BME280;10990;48.174;9.782;2023-08-01T05:16:15;92423.53;;;17.16;100.00
21658;BME280;10990;48.174;9.782;2023-08-01T05:18:42;92435.25;;;17.20;100.00
21658;BME280;10990;48.174;9.782;2023-08-01T05:21:10;92452.59;;;17.22;100.00
21658;BME280;10990;48.174;9.782;2023-08-01T05:23:37;92461.16;;;17.19;100.00
21658;BME280;10990;48.174;9.782;2023-08-01T05:26:03;92477.72;;;17.21;100.00
21658;BME280;10990;48.174;9.782;2023-08-01T05:28:30;92478.25;;;17.18;100.00
21658;BME280;10990;48.174;9.782;2023-08-01T05:30:57;92490.28;;;17.16;100.00
21658;BME280;10990;48.174;9.782;2023-08-01T05:33:23;92497.50;;;17.10;100.00
21658;BME280;10990;48.174;9.782;2023-08-01T05:35:50;92491.06;;;17.11;100.00
21658;BME280;10990;48.174;9.782;2023-08-01T05:38:18;92475.03;;;17.11;100.00
21658;BME280;10990;48.174;9.782;2023-08-01T05:40:45;92469.44;;;17.13;100.00
21658;BME280;10990;48.174;9.782;2023-08-01T05:43:12;92478.25;;;17.08;100.00
21658;BME280;10990;48.174;9.782;2023-08-01T05:45:38;92505.50;;;17.05;100.00
21658;BME280;10990;48.174;9.782;2023-08-01T05:48:05;92500.94;;;17.06;100.00
21658;BME280;10990;48.174;9.782;2023-08-01T05:50:32;92514.03;;;17.07;100.00
21658;BME280;10990;48.174;9.782;2023-08-01T05:52:59;92517.50;;;17.08;100.00
21658;BME280;10990;48.174;9.782;2023-08-01T05:55:27;92503.38;;;17.07;100.00
21658;BME280;10990;48.174;9.782;2023-08-01T05:57:54;92501.22;;;17.14;100.00
21658;BME280;10990;48.174;9.782;2023-08-01T06:00:21;92491.06;;;17.16;100.00
21658;BME280;10990;48.174;9.782;2023-08-01T06:02:47;92486.25;;;17.13;100.00
21658;BME280;10990;48.174;9.782;2023-08-01T06:05:15;92461.97;;;17.10;100.00
21658;BME280;10990;48.174;9.782;2023-08-01T06:07:41;92424.84;;;17.13;100.00
21658;BME280;10990;48.174;9.782;2023-08-01T06:10:09;92433.94;;;17.12;100.00
21658;BME280;10990;48.174;9.782;2023-08-01T06:12:37;92401.91;;;17.12;100.00
21658;BME280;10990;48.174;9.782;2023-08-01T06:15:05;92397.38;;;17.02;100.00
21658;BME280;10990;48.174;9.782;2023-08-01T06:17:32;92428.88;;;17.06;100.00
21658;BME280;10990;48.174;9.782;2023-08-01T06:19:58;92422.97;;;17.09;100.00
21658;BME280;10990;48.174;9.782;2023-08-01T06:22:25;92418.97;;;17.16;100.00
21658;BME280;10990;48.174;9.782;2023-08-01T06:24:52;92433.66;;;17.19;100.00
21658;BME280;10990;48.174;9.782;2023-08-01T06:27:19;92486.28;;;17.18;100.00
21658;BME280;10990;48.174;9.782;2023-08-01T06:29:47;92494.00;;;17.40;100.00
21658;BME280;10990;48.174;9.782;2023-08-01T06:32:13;92509.50;;;17.48;100.00
21658;BME280;10990;48.174;9.782;2023-08-01T06:34:40;92534.31;;;17.44;100.00
21658;BME280;10990;48.174;9.782;2023-08-01T06:37:07;92537.53;;;17.46;100.00
21658;BME280;10990;48.174;9.782;2023-08-01T06:39:35;92535.66;;;17.41;100.00
21658;BME280;10990;48.174;9.782;2023-08-01T06:42:02;92549.78;;;17.62;100.00
21658;BME280;10990;48.174;9.782;2023-08-01T06:44:29;92587.75;;;17.75;100.00
21658;BME280;10990;48.174;9.782;2023-08-01T06:46:57;92609.69;;;17.82;100.00
21658;BME280;10990;48.174;9.782;2023-08-01T06:49:23;92610.22;;;17.68;100.00
21658;BME280;10990;48.174;9.782;2023-08-01T06:51:50;92615.53;;;17.53;100.00
21658;BME280;10990;48.174;9.782;2023-08-01T06:54:17;92624.63;;;17.57;100.00
21658;BME280;10990;48.174;9.782;2023-08-01T06:56:44;92651.31;;;17.37;100.00
21658;BME280;10990;48.174;9.782;2023-08-01T06:59:13;92641.97;;;17.39;100.00
21658;BME280;10990;48.174;9.782;2023-08-01T07:01:40;92623.81;;;17.41;100.00
21658;BME280;10990;48.174;9.782;2023-08-01T07:04:10;92623.03;;;17.46;100.00
21658;BME280;10990;48.174;9.782;2023-08-01T07:06:36;92666.00;;;17.39;100.00
21658;BME280;10990;48.174;9.782;2023-08-01T07:09:03;92678.56;;;17.34;100.00
21658;BME280;10990;48.174;9.782;2023-08-01T07:11:30;92678.28;;;17.30;100.00
21658;BME280;10990;48.174;9.782;2023-08-01T07:13:57;92693.81;;;17.43;100.00
21658;BME280;10990;48.174;9.782;2023-08-01T07:16:24;92716.25;;;17.47;100.00
21658;BME280;10990;48.174;9.782;2023-08-01T07:18:50;92743.53;;;17.50;100.00
21658;BME280;10990;48.174;9.782;2023-08-01T07:21:18;92765.97;;;17.48;100.00
21658;BME280;10990;48.174;9.782;2023-08-01T07:23:45;92795.06;;;17.45;100.00
21658;BME280;10990;48.174;9.782;2023-08-01T07:26:14;92810.03;;;17.51;100.00
21658;BME280;10990;48.174;9.782;2023-08-01T07:28:42;92825.56;;;17.49;100.00
21658;BME280;10990;48.174;9.782;2023-08-01T07:31:08;92846.97;;;17.54;100.00
21658;BME280;10990;48.174;9.782;2023-08-01T07:33:36;92856.56;;;17.55;100.00
21658;BME280;10990;48.174;9.782;2023-08-01T07:36:03;92859.53;;;17.64;100.00
21658;BME280;10990;48.174;9.782;2023-08-01T07:38:32;92850.22;;;17.72;100.00
21658;BME280;10990;48.174;9.782;2023-08-01T07:41:02;92857.41;;;17.66;100.00
21658;BME280;10990;48.174;9.782;2023-08-01T07:43:29;92862.50;;;17.67;100.00
21658;BME280;10990;48.174;9.782;2023-08-01T07:45:56;92876.66;;;17.63;100.00
21658;BME280;10990;48.174;9.782;2023-08-01T07:48:23;92892.38;;;17.59;100.00
21658;BME280;10990;48.174;9.782;2023-08-01T07:50:50;92894.78;;;17.56;100.00
21658;BME280;10990;48.174;9.782;2023-08-01T07:53:17;92910.06;;;17.65;100.00
21658;BME280;10990;48.174;9.782;2023-08-01T07:55:45;92939.97;;;17.62;100.00
21658;BME280;10990;48.174;9.782;2023-08-01T07:58:11;92916.75;;;17.63;100.00
21658;BME280;10990;48.174;9.782;2023-08-01T08:00:38;92916.00;;;17.78;100.00
21658;BME280;10990;48.174;9.782;2023-08-01T08:03:05;92905.28;;;17.73;100.00
21658;BME280;10990;48.174;9.782;2023-08-01T08:05:33;92904.19;;;17.74;100.00
21658;BME280;10990;48.174;9.782;2023-08-01T08:08:03;92904.19;;;17.74;100.00
21658;BME280;10990;48.174;9.782;2023-08-01T08:10:30;92924.59;;;17.80;100.00
21658;BME280;10990;48.174;9.782;2023-08-01T08:12:58;92919.03;;;18.02;100.00
21658;BME280;10990;48.174;9.782;2023-08-01T08:15:26;92931.38;;;18.08;100.00
21658;BME280;10990;48.174;9.782;2023-08-01T08:17:52;92926.91;;;18.34;100.00
21658;BME280;10990;48.174;9.782;2023-08-01T08:20:19;92958.47;;;18.32;100.00
21658;BME280;10990;48.174;9.782;2023-08-01T08:22:46;92961.94;;;18.27;100.00
21658;BME280;10990;48.174;9.782;2023-08-01T08:25:13;92968.38;;;18.36;100.00
21658;BME280;10990;48.174;9.782;2023-08-01T08:27:39;92979.81;;;18.17;100.00
21658;BME280;10990;48.174;9.782;2023-08-01T08:30:09;92983.31;;;18.22;100.00
21658;BME280;10990;48.174;9.782;2023-08-01T08:32:35;92986.28;;;18.31;100.00
21658;BME280;10990;48.174;9.782;2023-08-01T08:35:02;92977.22;;;18.52;100.00
21658;BME280;10990;48.174;9.782;2023-08-01T08:37:29;93007.19;;;18.44;100.00
21658;BME280;10990;48.174;9.782;2023-08-01T08:39:56;92990.06;;;18.40;100.00
21658;BME280;10990;48.174;9.782;2023-08-01T08:42:23;92963.53;;;18.23;100.00
21658;BME280;10990;48.174;9.782;2023-08-01T08:44:54;92969.84;;;18.02;100.00
21658;BME280;10990;48.174;9.782;2023-08-01T08:47:25;92982.28;;;17.76;100.00
21658;BME280;10990;48.174;9.782;2023-08-01T08:49:55;92975.16;;;17.86;100.00
21658;BME280;10990;48.174;9.782;2023-08-01T08:52:22;92994.03;;;17.75;100.00
21658;BME280;10990;48.174;9.782;2023-08-01T08:54:50;92994.59;;;17.77;100.00
21658;BME280;10990;48.174;9.782;2023-08-01T08:57:18;93006.97;;;17.93;100.00
21658;BME280;10990;48.174;9.782;2023-08-01T08:59:46;92980.56;;;17.97;100.00
21658;BME280;10990;48.174;9.782;2023-08-01T09:02:14;92959.81;;;17.72;100.00
21658;BME280;10990;48.174;9.782;2023-08-01T09:04:43;92974.16;;;17.55;100.00
21658;BME280;10990;48.174;9.782;2023-08-01T09:07:10;92949.66;;;17.26;100.00
21658;BME280;10990;48.174;9.782;2023-08-01T09:09:37;92937.84;;;17.17;100.00
21658;BME280;10990;48.174;9.782;2023-08-01T09:12:05;92902.25;;;17.06;100.00
21658;BME280;10990;48.174;9.782;2023-08-01T09:14:32;92896.34;;;16.99;100.00
21658;BME280;10990;48.174;9.782;2023-08-01T09:17:06;92873.59;;;16.91;100.00
21658;BME280;10990;48.174;9.782;2023-08-01T09:19:33;92830.19;;;16.74;100.00
21658;BME280;10990;48.174;9.782;2023-08-01T09:22:01;92804.69;;;16.88;100.00
21658;BME280;10990;48.174;9.782;2023-08-01T09:24:28;92760.91;;;16.89;100.00
21658;BME280;10990;48.174;9.782;2023-08-01T09:27:02;92731.81;;;16.83;100.00
21658;BME280;10990;48.174;9.782;2023-08-01T09:29:29;92717.94;;;16.86;100.00
21658;BME280;10990;48.174;9.782;2023-08-01T09:31:58;92657.94;;;17.03;100.00
21658;BME280;10990;48.174;9.782;2023-08-01T09:34:26;92635.22;;;16.96;100.00
21658;BME280;10990;48.174;9.782;2023-08-01T09:36:58;92611.44;;;16.89;100.00
21658;BME280;10990;48.174;9.782;2023-08-01T09:39:26;92603.91;;;16.76;100.00
21658;BME280;10990;48.174;9.782;2023-08-01T09:41:57;92582.34;;;16.88;100.00
21658;BME280;10990;48.174;9.782;2023-08-01T09:44:25;92573.56;;;16.92;100.00
21658;BME280;10990;48.174;9.782;2023-08-01T09:46:56;92569.00;;;16.83;100.00
21658;BME280;10990;48.174;9.782;2023-08-01T09:49:23;92548.19;;;16.90;100.00
21658;BME280;10990;48.174;9.782;2023-08-01T09:51:50;92527.66;;;17.06;100.00
21658;BME280;10990;48.174;9.782;2023-08-01T09:54:18;92506.03;;;16.97;100.00
21658;BME280;10990;48.174;9.782;2023-08-01T09:56:47;92483.56;;;17.34;100.00
21658;BME280;10990;48.174;9.782;2023-08-01T09:59:19;92472.88;;;17.34;100.00
21658;BME280;10990;48.174;9.782;2023-08-01T10:01:47;92483.31;;;17.35;100.00
21658;BME280;10990;48.174;9.782;2023-08-01T10:04:17;92473.44;;;17.00;100.00
21658;BME280;10990;48.174;9.782;2023-08-01T10:06:46;92462.53;;;16.81;100.00
21658;BME280;10990;48.174;9.782;2023-08-01T10:09:16;92426.22;;;16.90;100.00
21658;BME280;10990;48.174;9.782;2023-08-01T10:11:45;92420.63;;;16.87;100.00
21658;BME280;10990;48.174;9.782;2023-08-01T10:14:13;92400.31;;;16.96;100.00
21658;BME280;10990;48.174;9.782;2023-08-01T10:16:41;92387.78;;;16.96;100.00
21658;BME280;10990;48.174;9.782;2023-08-01T10:19:09;92385.09;;;16.91;100.00
21658;BME280;10990;48.174;9.782;2023-08-01T10:21:37;92394.19;;;16.80;100.00
21658;BME280;10990;48.174;9.782;2023-08-01T10:24:06;92378.97;;;16.86;100.00
21658;BME280;10990;48.174;9.782;2023-08-01T10:26:33;92375.75;;;16.73;100.00
21658;BME280;10990;48.174;9.782;2023-08-01T10:29:02;92326.38;;;16.96;100.00
21658;BME280;10990;48.174;9.782;2023-08-01T10:31:28;92338.13;;;16.95;100.00
21658;BME280;10990;48.174;9.782;2023-08-01T10:34:04;92333.53;;;17.06;100.00
21658;BME280;10990;48.174;9.782;2023-08-01T10:36:31;92327.69;;;17.09;100.00
21658;BME280;10990;48.174;9.782;2023-08-01T10:38:59;92317.56;;;17.01;100.00
21658;BME280;10990;48.174;9.782;2023-08-01T10:41:28;92312.78;;;16.93;100.00
21658;BME280;10990;48.174;9.782;2023-08-01T10:44:06;92265.81;;;16.87;100.00
21658;BME280;10990;48.174;9.782;2023-08-01T10:46:46;92240.66;;;17.03;100.00
21658;BME280;10990;48.174;9.782;2023-08-01T10:49:14;92205.59;;;17.69;100.00
21658;BME280;10990;48.174;9.782;2023-08-01T10:51:41;92222.97;;;18.06;100.00
21658;BME280;10990;48.174;9.782;2023-08-01T10:54:18;92229.31;;;18.15;100.00
21658;BME280;10990;48.174;9.782;2023-08-01T10:56:45;92249.25;;;18.33;100.00
21658;BME280;10990;48.174;9.782;2023-08-01T10:59:14;92233.34;;;18.71;100.00
21658;BME280;10990;48.174;9.782;2023-08-01T11:01:44;92228.31;;;19.18;100.00
21658;BME280;10990;48.174;9.782;2023-08-01T11:04:15;92257.06;;;19.31;100.00
21658;BME280;10990;48.174;9.782;2023-08-01T11:06:43;92316.16;;;19.21;100.00
21658;BME280;10990;48.174;9.782;2023-08-01T11:09:15;92331.44;;;19.20;100.00
21658;BME280;10990;48.174;9.782;2023-08-01T11:11:43;92370.66;;;19.06;100.00
21658;BME280;10990;48.174;9.782;2023-08-01T11:14:11;92398.50;;;18.76;100.00
21658;BME280;10990;48.174;9.782;2023-08-01T11:16:40;92427.34;;;18.45;100.00
21658;BME280;10990;48.174;9.782;2023-08-01T11:19:17;92426.59;;;18.34;100.00
21658;BME280;10990;48.174;9.782;2023-08-01T11:21:44;92384.41;;;18.21;100.00
21658;BME280;10990;48.174;9.782;2023-08-01T11:24:11;92367.03;;;18.18;100.00
21658;BME280;10990;48.174;9.782;2023-08-01T11:26:40;92336.19;;;18.65;100.00
21658;BME280;10990;48.174;9.782;2023-08-01T11:29:07;92346.44;;;18.92;100.00
21658;BME280;10990;48.174;9.782;2023-08-01T11:31:34;92293.00;;;19.54;100.00
21658;BME280;10990;48.174;9.782;2023-08-01T11:34:02;92302.59;;;19.98;100.00
21658;BME280;10990;48.174;9.782;2023-08-01T11:36:29;92332.72;;;20.14;100.00
21658;BME280;10990;48.174;9.782;2023-08-01T11:38:57;92359.09;;;20.26;100.00
21658;BME280;10990;48.174;9.782;2023-08-01T11:41:24;92405.94;;;19.90;100.00
21658;BME280;10990;48.174;9.782;2023-08-01T11:43:52;92462.53;;;19.65;100.00
21658;BME280;10990;48.174;9.782;2023-08-01T11:46:20;92467.19;;;19.83;100.00
21658;BME280;10990;48.174;9.782;2023-08-01T11:48:47;92481.75;;;19.77;100.00
21658;BME280;10990;48.174;9.782;2023-08-01T11:51:16;92502.19;;;19.97;100.00
21658;BME280;10990;48.174;9.782;2023-08-01T11:53:43;92525.91;;;19.85;100.00
21658;BME280;10990;48.174;9.782;2023-08-01T11:56:20;92529.91;;;19.87;100.00
21658;BME280;10990;48.174;9.782;2023-08-01T11:58:47;92559.66;;;19.91;100.00
21658;BME280;10990;48.174;9.782;2023-08-01T12:01:14;92595.72;;;19.75;100.00
21658;BME280;10990;48.174;9.782;2023-08-01T12:03:44;92613.09;;;19.82;100.00
21658;BME280;10990;48.174;9.782;2023-08-01T12:06:12;92614.75;;;19.73;100.00
21658;BME280;10990;48.174;9.782;2023-08-01T12:08:41;92636.66;;;19.46;100.00
21658;BME280;10990;48.174;9.782;2023-08-01T12:11:17;92611.09;;;19.19;100.00
21658;BME280;10990;48.174;9.782;2023-08-01T12:13:45;92555.41;;;19.16;100.00
21658;BME280;10990;48.174;9.782;2023-08-01T12:16:11;92517.50;;;19.33;100.00
21658;BME280;10990;48.174;9.782;2023-08-01T12:18:40;92507.41;;;19.54;100.00
21658;BME280;10990;48.174;9.782;2023-08-01T12:21:08;92487.81;;;19.88;100.00
21658;BME280;10990;48.174;9.782;2023-08-01T12:23:35;92496.16;;;19.52;100.00
21658;BME280;10990;48.174;9.782;2023-08-01T12:26:03;92486.75;;;19.55;100.00
21658;BME280;10990;48.174;9.782;2023-08-01T12:28:30;92507.06;;;19.32;100.00
21658;BME280;10990;48.174;9.782;2023-08-01T12:30:57;92541.41;;;18.85;100.00
21658;BME280;10990;48.174;9.782;2023-08-01T12:33:24;92512.97;;;18.89;100.00
21658;BME280;10990;48.174;9.782;2023-08-01T12:35:51;92526.72;;;18.72;100.00
21658;BME280;10990;48.174;9.782;2023-08-01T12:38:17;92507.31;;;18.46;100.00
21658;BME280;10990;48.174;9.782;2023-08-01T12:40:44;92467.28;;;18.31;100.00
21658;BME280;10990;48.174;9.782;2023-08-01T12:43:13;92424.75;;;18.24;100.00
21658;BME280;10990;48.174;9.782;2023-08-01T12:45:42;92417.81;;;18.23;100.00
21658;BME280;10990;48.174;9.782;2023-08-01T12:48:08;92357.31;;;18.32;100.00
21658;BME280;10990;48.174;9.782;2023-08-01T12:50:35;92333.88;;;18.19;100.00
21658;BME280;10990;48.174;9.782;2023-08-01T12:53:02;92319.28;;;18.01;100.00